Dearing, KS (67340)

3:35 AM CDT on August 23, 2014 (GMT -0500)
Coffeyville Municipal | Change Station
CLOSE
Current Station
Airport
Location: Coffeyville,
Elevation: 751 ft
Nearby Weather Stations

Elev 751 ft 37.09 °N, 95.57 °W | Updated 43 minutes ago

Clear
Clear
79 °F
Feels Like 79 °F
N
9
Wind Variable Wind from South

Today
High -- | Low -- °F
--% Chance of Precip.
Yesterday
High -- | Low -- °F
Precip. -- in
6:46 AM 8:04 PM
Waning Crescent, 4% visible
Pressure 29.90 in
Visibility 10.0 miles
Clouds Clear
Dew Point 71 °F
Humidity 77%
Rainfall 0.00 in
Snow Depth Not available.
UV 0 out of 12
Pollen 9.60 out of 12
Air Quality Not available.
Flu Activity Not available.
METAR KCFV 230752Z AUTO 17008KT 10SM CLR 26/22 A2993 RMK AO2 SLP124 T02610217 TSNO

More Conditions Fewer Conditions

Pressure 29.90 in
Visibility 10.0 miles
Clouds Clear
Dew Point 71 °F
Humidity 77%
Rainfall 0.00 in
Snow Depth Not available.
UV 0 out of 12
Pollen 9.60 out of 12
Air Quality Not available.
Flu Activity Not available.
METAR KCFV 230752Z AUTO 17008KT 10SM CLR 26/22 A2993 RMK AO2 SLP124 T02610217 TSNO

More Conditions Fewer Conditions

10-Day Weather Forecast

Almanac

Astronomy

Aug. 23, 2014 Rise Set
Actual Time 6:46 AM CDT 8:04 PM CDT
Civil Twilight 6:19 AM CDT 8:31 PM CDT
Nautical Twilight 5:46 AM CDT 9:03 PM CDT
Astronomical Twilight 5:12 AM CDT 9:37 PM CDT
Moon 5:04 AM CDT 6:49 PM CDT
Length of Visible Light 14h 11m
Length of Day
13h 17m
Tomorrow will be 2m 12s shorter.
Waning Crescent, 4% of the Moon is Illuminated
Today
Waning Crescent
Aug 25
New
Sep 2
First Quarter
Sep 8
Full
Sep 15
Last Quarter

Today's Extremes

State Highs State Lows

Community

WunderPhotos

Upload Photos

1,746,385 photos uploaded!

WunderBlogs® & News

By Dr. Jeff Masters
Director of Meteorology, Weather Underground
By Kari Strenfel
Meteorologist, Weather Underground
By Christopher C. Burt
Weather Historian, Weather Underground
August 23, 2014
August 23, 2014
August 22, 2014

Nearby

Snow Depth

Station Depth Elevation
No new snow has been reported.

Earthquake Activity

City Distance Mag. Time & Date
Yale, Oklahoma 82 miles 2.5 11:22 AM CDT
2014-08-18
Waukomis, Oklahoma 121 miles 2.6 9:40 AM CDT
2014-08-18
Yale, Oklahoma 89 miles 2.5 8:07 AM CDT
2014-08-18
Boley, Oklahoma 124 miles 3.4 9:50 PM CDT
2014-08-17
Minimum magnitude displayed is 2.5.

Coastal Water Temperatures

Place Temperature
No Stations Reporting

Nearby Weather Stations